sensor_id;sensor_type;location;lat;lon;timestamp;P1;durP1;ratioP1;P2;durP2;ratioP2
14738;SDS011;7461;52.440;13.540;2022-10-19T00:00:59;15.30;;;11.05;;
14738;SDS011;7461;52.440;13.540;2022-10-19T00:03:30;12.98;;;11.63;;
14738;SDS011;7461;52.440;13.540;2022-10-19T00:05:57;11.75;;;10.55;;
14738;SDS011;7461;52.440;13.540;2022-10-19T00:08:24;17.30;;;12.55;;
14738;SDS011;7461;52.440;13.540;2022-10-19T00:10:51;11.45;;;10.55;;
14738;SDS011;7461;52.440;13.540;2022-10-19T00:13:19;15.27;;;10.98;;
14738;SDS011;7461;52.440;13.540;2022-10-19T00:15:46;14.13;;;12.15;;
14738;SDS011;7461;52.440;13.540;2022-10-19T00:18:13;14.30;;;10.00;;
14738;SDS011;7461;52.440;13.540;2022-10-19T00:20:42;11.57;;;9.65;;
14738;SDS011;7461;52.440;13.540;2022-10-19T00:23:09;13.70;;;10.18;;
14738;SDS011;7461;52.440;13.540;2022-10-19T00:25:36;13.95;;;10.40;;
14738;SDS011;7461;52.440;13.540;2022-10-19T00:28:03;12.23;;;11.02;;
14738;SDS011;7461;52.440;13.540;2022-10-19T00:30:30;12.68;;;9.98;;
14738;SDS011;7461;52.440;13.540;2022-10-19T00:32:57;10.55;;;8.07;;
14738;SDS011;7461;52.440;13.540;2022-10-19T00:35:24;9.68;;;8.32;;
14738;SDS011;7461;52.440;13.540;2022-10-19T00:37:53;15.00;;;8.80;;
14738;SDS011;7461;52.440;13.540;2022-10-19T00:40:20;13.73;;;9.95;;
14738;SDS011;7461;52.440;13.540;2022-10-19T00:42:52;10.73;;;7.80;;
14738;SDS011;7461;52.440;13.540;2022-10-19T00:45:19;14.30;;;8.35;;
14738;SDS011;7461;52.440;13.540;2022-10-19T00:47:48;10.23;;;8.75;;
14738;SDS011;7461;52.440;13.540;2022-10-19T00:50:16;13.98;;;7.53;;
14738;SDS011;7461;52.440;13.540;2022-10-19T00:52:44;9.23;;;8.30;;
14738;SDS011;7461;52.440;13.540;2022-10-19T00:55:12;8.43;;;7.57;;
14738;SDS011;7461;52.440;13.540;2022-10-19T00:57:39;10.30;;;8.77;;
14738;SDS011;7461;52.440;13.540;2022-10-19T01:00:07;8.95;;;7.60;;
14738;SDS011;7461;52.440;13.540;2022-10-19T01:02:34;13.75;;;7.93;;
14738;SDS011;7461;52.440;13.540;2022-10-19T01:05:05;8.13;;;7.28;;
14738;SDS011;7461;52.440;13.540;2022-10-19T01:07:32;8.88;;;7.95;;
14738;SDS011;7461;52.440;13.540;2022-10-19T01:09:59;8.35;;;7.55;;
14738;SDS011;7461;52.440;13.540;2022-10-19T01:12:38;11.77;;;8.65;;
14738;SDS011;7461;52.440;13.540;2022-10-19T01:15:11;10.27;;;8.20;;
14738;SDS011;7461;52.440;13.540;2022-10-19T01:17:43;11.23;;;9.10;;
14738;SDS011;7461;52.440;13.540;2022-10-19T01:20:23;12.68;;;7.47;;
14738;SDS011;7461;52.440;13.540;2022-10-19T01:22:56;9.50;;;7.82;;
14738;SDS011;7461;52.440;13.540;2022-10-19T01:25:29;7.35;;;6.43;;
14738;SDS011;7461;52.440;13.540;2022-10-19T01:28:07;7.03;;;6.53;;
14738;SDS011;7461;52.440;13.540;2022-10-19T01:30:41;8.55;;;6.63;;
14738;SDS011;7461;52.440;13.540;2022-10-19T01:33:19;8.70;;;7.78;;
14738;SDS011;7461;52.440;13.540;2022-10-19T01:35:49;10.57;;;7.32;;
14738;SDS011;7461;52.440;13.540;2022-10-19T01:38:21;10.18;;;6.47;;
14738;SDS011;7461;52.440;13.540;2022-10-19T01:40:52;7.50;;;6.82;;
14738;SDS011;7461;52.440;13.540;2022-10-19T01:43:21;8.68;;;7.03;;
14738;SDS011;7461;52.440;13.540;2022-10-19T01:45:53;10.82;;;6.07;;
14738;SDS011;7461;52.440;13.540;2022-10-19T01:48:22;15.02;;;6.25;;
14738;SDS011;7461;52.440;13.540;2022-10-19T01:50:52;5.97;;;5.57;;
14738;SDS011;7461;52.440;13.540;2022-10-19T01:53:21;8.02;;;6.00;;
14738;SDS011;7461;52.440;13.540;2022-10-19T01:55:50;11.50;;;5.25;;
14738;SDS011;7461;52.440;13.540;2022-10-19T01:58:19;7.68;;;5.82;;
14738;SDS011;7461;52.440;13.540;2022-10-19T02:00:48;7.22;;;6.63;;
14738;SDS011;7461;52.440;13.540;2022-10-19T02:03:18;8.88;;;5.55;;
14738;SDS011;7461;52.440;13.540;2022-10-19T02:05:45;5.85;;;4.88;;
14738;SDS011;7461;52.440;13.540;2022-10-19T02:08:13;8.57;;;5.25;;
14738;SDS011;7461;52.440;13.540;2022-10-19T02:10:42;7.85;;;5.43;;
14738;SDS011;7461;52.440;13.540;2022-10-19T02:13:10;13.02;;;6.18;;
14738;SDS011;7461;52.440;13.540;2022-10-19T02:15:40;10.10;;;6.03;;
14738;SDS011;7461;52.440;13.540;2022-10-19T02:18:08;7.10;;;5.00;;
14738;SDS011;7461;52.440;13.540;2022-10-19T02:20:37;9.15;;;5.65;;
14738;SDS011;7461;52.440;13.540;2022-10-19T02:23:05;5.93;;;5.13;;
14738;SDS011;7461;52.440;13.540;2022-10-19T02:25:32;6.45;;;5.35;;
14738;SDS011;7461;52.440;13.540;2022-10-19T02:28:00;7.53;;;5.70;;
14738;SDS011;7461;52.440;13.540;2022-10-19T02:30:27;6.18;;;5.30;;
14738;SDS011;7461;52.440;13.540;2022-10-19T02:32:55;8.43;;;5.95;;
14738;SDS011;7461;52.440;13.540;2022-10-19T02:35:22;9.73;;;5.85;;
14738;SDS011;7461;52.440;13.540;2022-10-19T02:37:50;9.05;;;5.65;;
14738;SDS011;7461;52.440;13.540;2022-10-19T02:40:17;7.13;;;6.05;;
14738;SDS011;7461;52.440;13.540;2022-10-19T02:42:47;6.20;;;5.68;;
14738;SDS011;7461;52.440;13.540;2022-10-19T02:45:16;8.50;;;6.05;;
14738;SDS011;7461;52.440;13.540;2022-10-19T02:47:46;6.10;;;5.60;;
14738;SDS011;7461;52.440;13.540;2022-10-19T02:50:15;6.30;;;5.60;;
14738;SDS011;7461;52.440;13.540;2022-10-19T02:52:42;7.05;;;6.18;;
14738;SDS011;7461;52.440;13.540;2022-10-19T02:55:11;7.40;;;5.75;;
14738;SDS011;7461;52.440;13.540;2022-10-19T02:57:40;8.10;;;6.40;;
14738;SDS011;7461;52.440;13.540;2022-10-19T03:00:08;5.50;;;5.00;;
14738;SDS011;7461;52.440;13.540;2022-10-19T03:02:35;6.32;;;5.40;;
14738;SDS011;7461;52.440;13.540;2022-10-19T03:05:03;7.95;;;6.07;;
14738;SDS011;7461;52.440;13.540;2022-10-19T03:07:30;6.80;;;6.20;;
14738;SDS011;7461;52.440;13.540;2022-10-19T03:09:57;6.45;;;5.00;;
14738;SDS011;7461;52.440;13.540;2022-10-19T03:12:25;6.22;;;5.32;;
14738;SDS011;7461;52.440;13.540;2022-10-19T03:14:52;9.35;;;5.70;;
14738;SDS011;7461;52.440;13.540;2022-10-19T03:17:19;5.88;;;5.28;;
14738;SDS011;7461;52.440;13.540;2022-10-19T03:19:47;5.80;;;5.40;;
14738;SDS011;7461;52.440;13.540;2022-10-19T03:22:14;7.32;;;4.63;;
14738;SDS011;7461;52.440;13.540;2022-10-19T03:24:41;10.27;;;5.97;;
14738;SDS011;7461;52.440;13.540;2022-10-19T03:27:08;8.63;;;5.60;;
14738;SDS011;7461;52.440;13.540;2022-10-19T03:29:37;7.25;;;4.47;;
14738;SDS011;7461;52.440;13.540;2022-10-19T03:32:07;5.63;;;4.97;;
14738;SDS011;7461;52.440;13.540;2022-10-19T03:34:34;6.55;;;4.70;;
14738;SDS011;7461;52.440;13.540;2022-10-19T03:37:02;10.57;;;4.63;;
14738;SDS011;7461;52.440;13.540;2022-10-19T03:39:29;6.97;;;4.20;;
14738;SDS011;7461;52.440;13.540;2022-10-19T03:41:57;6.18;;;4.60;;
14738;SDS011;7461;52.440;13.540;2022-10-19T03:44:24;13.63;;;4.93;;
14738;SDS011;7461;52.440;13.540;2022-10-19T03:46:53;4.80;;;4.22;;
14738;SDS011;7461;52.440;13.540;2022-10-19T03:49:21;5.65;;;4.22;;
14738;SDS011;7461;52.440;13.540;2022-10-19T03:51:48;4.93;;;3.88;;
14738;SDS011;7461;52.440;13.540;2022-10-19T03:54:16;4.78;;;2.65;;
14738;SDS011;7461;52.440;13.540;2022-10-19T03:56:43;4.20;;;2.88;;
14738;SDS011;7461;52.440;13.540;2022-10-19T03:59:11;10.25;;;3.97;;
14738;SDS011;7461;52.440;13.540;2022-10-19T04:01:39;3.03;;;2.15;;
14738;SDS011;7461;52.440;13.540;2022-10-19T04:04:09;3.35;;;2.28;;
14738;SDS011;7461;52.440;13.540;2022-10-19T04:06:37;3.47;;;2.17;;
14738;SDS011;7461;52.440;13.540;2022-10-19T04:09:05;4.70;;;2.30;;
14738;SDS011;7461;52.440;13.540;2022-10-19T04:11:33;3.40;;;2.67;;
14738;SDS011;7461;52.440;13.540;2022-10-19T04:14:02;7.57;;;3.45;;
14738;SDS011;7461;52.440;13.540;2022-10-19T04:16:32;8.43;;;2.63;;
14738;SDS011;7461;52.440;13.540;2022-10-19T04:18:59;6.15;;;2.70;;
14738;SDS011;7461;52.440;13.540;2022-10-19T04:21:31;6.20;;;3.10;;
14738;SDS011;7461;52.440;13.540;2022-10-19T04:23:59;4.50;;;2.65;;
14738;SDS011;7461;52.440;13.540;2022-10-19T04:26:27;6.88;;;2.67;;
14738;SDS011;7461;52.440;13.540;2022-10-19T04:28:55;4.10;;;3.72;;
14738;SDS011;7461;52.440;13.540;2022-10-19T04:31:23;2.80;;;2.60;;
14738;SDS011;7461;52.440;13.540;2022-10-19T04:33:50;10.27;;;3.30;;
14738;SDS011;7461;52.440;13.540;2022-10-19T04:36:17;3.70;;;2.78;;
14738;SDS011;7461;52.440;13.540;2022-10-19T04:38:46;4.15;;;2.42;;
14738;SDS011;7461;52.440;13.540;2022-10-19T04:41:17;2.83;;;2.58;;
14738;SDS011;7461;52.440;13.540;2022-10-19T04:43:44;3.58;;;2.30;;
14738;SDS011;7461;52.440;13.540;2022-10-19T04:46:12;6.45;;;2.42;;
14738;SDS011;7461;52.440;13.540;2022-10-19T04:48:40;3.72;;;2.70;;
14738;SDS011;7461;52.440;13.540;2022-10-19T04:51:08;5.25;;;2.78;;
14738;SDS011;7461;52.440;13.540;2022-10-19T04:53:35;5.28;;;2.22;;
14738;SDS011;7461;52.440;13.540;2022-10-19T04:56:05;2.80;;;2.05;;
14738;SDS011;7461;52.440;13.540;2022-10-19T04:58:33;7.03;;;2.17;;
14738;SDS011;7461;52.440;13.540;2022-10-19T05:01:05;3.42;;;2.78;;
14738;SDS011;7461;52.440;13.540;2022-10-19T05:03:32;2.17;;;2.00;;
14738;SDS011;7461;52.440;13.540;2022-10-19T05:05:59;5.47;;;2.28;;
14738;SDS011;7461;52.440;13.540;2022-10-19T05:08:27;5.97;;;1.80;;
14738;SDS011;7461;52.440;13.540;2022-10-19T05:10:59;2.60;;;2.30;;
14738;SDS011;7461;52.440;13.540;2022-10-19T05:13:27;3.13;;;1.75;;
14738;SDS011;7461;52.440;13.540;2022-10-19T05:15:55;5.85;;;2.17;;
14738;SDS011;7461;52.440;13.540;2022-10-19T05:18:22;4.97;;;2.28;;
14738;SDS011;7461;52.440;13.540;2022-10-19T05:20:49;4.43;;;1.85;;
14738;SDS011;7461;52.440;13.540;2022-10-19T05:23:16;2.05;;;1.95;;
14738;SDS011;7461;52.440;13.540;2022-10-19T05:25:43;7.45;;;1.65;;
14738;SDS011;7461;52.440;13.540;2022-10-19T05:28:10;3.90;;;1.67;;
14738;SDS011;7461;52.440;13.540;2022-10-19T05:30:39;3.45;;;1.20;;
14738;SDS011;7461;52.440;13.540;2022-10-19T05:33:06;7.45;;;2.65;;
14738;SDS011;7461;52.440;13.540;2022-10-19T05:35:33;3.42;;;1.52;;
14738;SDS011;7461;52.440;13.540;2022-10-19T05:38:00;4.38;;;1.50;;
14738;SDS011;7461;52.440;13.540;2022-10-19T05:40:27;4.20;;;1.50;;
14738;SDS011;7461;52.440;13.540;2022-10-19T05:42:55;4.18;;;1.83;;
14738;SDS011;7461;52.440;13.540;2022-10-19T05:45:22;2.45;;;1.45;;
14738;SDS011;7461;52.440;13.540;2022-10-19T05:47:50;5.65;;;2.00;;
14738;SDS011;7461;52.440;13.540;2022-10-19T05:50:17;3.72;;;1.98;;
14738;SDS011;7461;52.440;13.540;2022-10-19T05:52:44;2.00;;;1.50;;
14738;SDS011;7461;52.440;13.540;2022-10-19T05:55:12;5.55;;;1.38;;
14738;SDS011;7461;52.440;13.540;2022-10-19T05:57:39;4.68;;;2.45;;
14738;SDS011;7461;52.440;13.540;2022-10-19T06:00:06;7.25;;;2.17;;
14738;SDS011;7461;52.440;13.540;2022-10-19T06:02:34;4.85;;;1.80;;
14738;SDS011;7461;52.440;13.540;2022-10-19T06:05:04;4.05;;;1.77;;
14738;SDS011;7461;52.440;13.540;2022-10-19T06:07:32;6.07;;;2.25;;
14738;SDS011;7461;52.440;13.540;2022-10-19T06:09:59;6.00;;;2.45;;
14738;SDS011;7461;52.440;13.540;2022-10-19T06:12:26;4.20;;;1.83;;
14738;SDS011;7461;52.440;13.540;2022-10-19T06:14:54;4.68;;;2.08;;
14738;SDS011;7461;52.440;13.540;2022-10-19T06:17:21;1.88;;;1.67;;
14738;SDS011;7461;52.440;13.540;2022-10-19T06:19:48;5.70;;;2.35;;
14738;SDS011;7461;52.440;13.540;2022-10-19T06:22:17;2.95;;;2.10;;
14738;SDS011;7461;52.440;13.540;2022-10-19T06:24:46;5.68;;;2.63;;
14738;SDS011;7461;52.440;13.540;2022-10-19T06:27:13;5.63;;;2.15;;
14738;SDS011;7461;52.440;13.540;2022-10-19T06:29:41;4.38;;;1.65;;
14738;SDS011;7461;52.440;13.540;2022-10-19T06:32:08;7.13;;;2.03;;
14738;SDS011;7461;52.440;13.540;2022-10-19T06:34:35;7.93;;;2.15;;
14738;SDS011;7461;52.440;13.540;2022-10-19T06:37:03;1.50;;;1.40;;
14738;SDS011;7461;52.440;13.540;2022-10-19T06:39:32;6.65;;;2.50;;
14738;SDS011;7461;52.440;13.540;2022-10-19T06:41:59;1.75;;;1.50;;
14738;SDS011;7461;52.440;13.540;2022-10-19T06:44:26;5.72;;;2.25;;
14738;SDS011;7461;52.440;13.540;2022-10-19T06:46:54;5.25;;;2.38;;
14738;SDS011;7461;52.440;13.540;2022-10-19T06:49:21;4.05;;;1.98;;
14738;SDS011;7461;52.440;13.540;2022-10-19T06:51:48;4.65;;;1.45;;
14738;SDS011;7461;52.440;13.540;2022-10-19T06:54:15;4.00;;;2.58;;
14738;SDS011;7461;52.440;13.540;2022-10-19T06:56:43;4.45;;;1.50;;
14738;SDS011;7461;52.440;13.540;2022-10-19T06:59:11;7.57;;;2.22;;
14738;SDS011;7461;52.440;13.540;2022-10-19T07:01:38;2.65;;;2.10;;
14738;SDS011;7461;52.440;13.540;2022-10-19T07:04:05;3.45;;;1.52;;
14738;SDS011;7461;52.440;13.540;2022-10-19T07:06:32;1.55;;;1.17;;
14738;SDS011;7461;52.440;13.540;2022-10-19T07:08:59;2.97;;;1.55;;
14738;SDS011;7461;52.440;13.540;2022-10-19T07:11:28;1.95;;;1.30;;
14738;SDS011;7461;52.440;13.540;2022-10-19T07:13:57;3.35;;;1.67;;
14738;SDS011;7461;52.440;13.540;2022-10-19T07:16:24;3.53;;;1.30;;
14738;SDS011;7461;52.440;13.540;2022-10-19T07:18:51;3.65;;;1.13;;
14738;SDS011;7461;52.440;13.540;2022-10-19T07:21:19;3.10;;;1.48;;
14738;SDS011;7461;52.440;13.540;2022-10-19T07:23:47;2.40;;;1.40;;
14738;SDS011;7461;52.440;13.540;2022-10-19T07:26:15;5.30;;;2.00;;
14738;SDS011;7461;52.440;13.540;2022-10-19T07:28:43;2.05;;;1.88;;
14738;SDS011;7461;52.440;13.540;2022-10-19T07:31:12;5.90;;;2.03;;
14738;SDS011;7461;52.440;13.540;2022-10-19T07:33:41;9.00;;;2.63;;
14738;SDS011;7461;52.440;13.540;2022-10-19T07:36:09;3.47;;;2.08;;
14738;SDS011;7461;52.440;13.540;2022-10-19T07:38:39;2.30;;;2.10;;
14738;SDS011;7461;52.440;13.540;2022-10-19T07:41:11;4.65;;;2.22;;
14738;SDS011;7461;52.440;13.540;2022-10-19T07:43:38;1.88;;;1.60;;
14738;SDS011;7461;52.440;13.540;2022-10-19T07:46:07;5.10;;;2.22;;
14738;SDS011;7461;52.440;13.540;2022-10-19T07:48:35;4.47;;;2.70;;
14738;SDS011;7461;52.440;13.540;2022-10-19T07:51:03;4.38;;;2.50;;
14738;SDS011;7461;52.440;13.540;2022-10-19T07:53:31;8.65;;;2.45;;
14738;SDS011;7461;52.440;13.540;2022-10-19T07:56:01;3.63;;;2.38;;
14738;SDS011;7461;52.440;13.540;2022-10-19T07:58:28;3.13;;;1.38;;
14738;SDS011;7461;52.440;13.540;2022-10-19T08:00:58;7.60;;;2.38;;
14738;SDS011;7461;52.440;13.540;2022-10-19T08:03:25;4.75;;;1.42;;
14738;SDS011;7461;52.440;13.540;2022-10-19T08:05:53;8.60;;;2.35;;
14738;SDS011;7461;52.440;13.540;2022-10-19T08:08:25;3.33;;;1.20;;
14738;SDS011;7461;52.440;13.540;2022-10-19T08:10:52;2.00;;;1.77;;
14738;SDS011;7461;52.440;13.540;2022-10-19T08:13:19;3.17;;;1.13;;
14738;SDS011;7461;52.440;13.540;2022-10-19T08:15:46;6.63;;;1.77;;
14738;SDS011;7461;52.440;13.540;2022-10-19T08:18:13;4.78;;;2.20;;
14738;SDS011;7461;52.440;13.540;2022-10-19T08:20:42;3.65;;;1.55;;
14738;SDS011;7461;52.440;13.540;2022-10-19T08:23:11;4.18;;;1.92;;
14738;SDS011;7461;52.440;13.540;2022-10-19T08:25:38;6.05;;;2.22;;
14738;SDS011;7461;52.440;13.540;2022-10-19T08:28:05;7.55;;;1.85;;
14738;SDS011;7461;52.440;13.540;2022-10-19T08:30:33;4.50;;;2.08;;
14738;SDS011;7461;52.440;13.540;2022-10-19T08:33:00;5.65;;;2.20;;
14738;SDS011;7461;52.440;13.540;2022-10-19T08:35:28;3.60;;;2.15;;
14738;SDS011;7461;52.440;13.540;2022-10-19T08:37:56;6.35;;;2.17;;
14738;SDS011;7461;52.440;13.540;2022-10-19T08:40:25;7.88;;;2.05;;
14738;SDS011;7461;52.440;13.540;2022-10-19T08:42:53;2.63;;;1.48;;
14738;SDS011;7461;52.440;13.540;2022-10-19T08:45:32;5.95;;;2.33;;
14738;SDS011;7461;52.440;13.540;2022-10-19T08:48:09;5.38;;;2.55;;
14738;SDS011;7461;52.440;13.540;2022-10-19T08:50:41;7.82;;;1.50;;
14738;SDS011;7461;52.440;13.540;2022-10-19T08:53:10;3.65;;;1.88;;
14738;SDS011;7461;52.440;13.540;2022-10-19T08:55:43;3.30;;;2.47;;
14738;SDS011;7461;52.440;13.540;2022-10-19T08:58:20;3.55;;;2.10;;
14738;SDS011;7461;52.440;13.540;2022-10-19T09:00:51;3.50;;;2.00;;
14738;SDS011;7461;52.440;13.540;2022-10-19T09:03:22;1.95;;;1.67;;
14738;SDS011;7461;52.440;13.540;2022-10-19T09:05:52;2.17;;;1.30;;
14738;SDS011;7461;52.440;13.540;2022-10-19T09:08:19;4.53;;;2.40;;
14738;SDS011;7461;52.440;13.540;2022-10-19T09:10:49;3.60;;;1.73;;
14738;SDS011;7461;52.440;13.540;2022-10-19T09:13:19;4.15;;;1.95;;
14738;SDS011;7461;52.440;13.540;2022-10-19T09:15:47;3.55;;;1.75;;
14738;SDS011;7461;52.440;13.540;2022-10-19T09:18:17;2.97;;;1.38;;
14738;SDS011;7461;52.440;13.540;2022-10-19T09:20:46;5.15;;;1.55;;
14738;SDS011;7461;52.440;13.540;2022-10-19T09:23:18;4.13;;;3.08;;
14738;SDS011;7461;52.440;13.540;2022-10-19T09:25:46;5.93;;;2.10;;
14738;SDS011;7461;52.440;13.540;2022-10-19T09:28:18;6.38;;;2.42;;
14738;SDS011;7461;52.440;13.540;2022-10-19T09:30:50;4.00;;;2.17;;
14738;SDS011;7461;52.440;13.540;2022-10-19T09:33:21;3.28;;;1.40;;
14738;SDS011;7461;52.440;13.540;2022-10-19T09:35:50;1.90;;;1.35;;
14738;SDS011;7461;52.440;13.540;2022-10-19T09:38:19;5.65;;;1.35;;
14738;SDS011;7461;52.440;13.540;2022-10-19T09:40:49;4.68;;;1.50;;
14738;SDS011;7461;52.440;13.540;2022-10-19T09:43:20;3.97;;;1.80;;
14738;SDS011;7461;52.440;13.540;2022-10-19T09:45:49;2.95;;;1.35;;
14738;SDS011;7461;52.440;13.540;2022-10-19T09:48:19;3.50;;;2.20;;
14738;SDS011;7461;52.440;13.540;2022-10-19T09:50:50;1.80;;;1.17;;
14738;SDS011;7461;52.440;13.540;2022-10-19T09:53:19;3.70;;;1.77;;
14738;SDS011;7461;52.440;13.540;2022-10-19T09:55:48;3.47;;;0.85;;
14738;SDS011;7461;52.440;13.540;2022-10-19T09:58:18;2.00;;;1.08;;
14738;SDS011;7461;52.440;13.540;2022-10-19T10:00:46;3.50;;;1.50;;
14738;SDS011;7461;52.440;13.540;2022-10-19T10:03:23;2.50;;;1.15;;
14738;SDS011;7461;52.440;13.540;2022-10-19T10:05:51;5.80;;;1.90;;
14738;SDS011;7461;52.440;13.540;2022-10-19T10:08:19;2.25;;;1.70;;
14738;SDS011;7461;52.440;13.540;2022-10-19T10:10:47;1.65;;;0.95;;
14738;SDS011;7461;52.440;13.540;2022-10-19T10:13:20;4.80;;;1.30;;
14738;SDS011;7461;52.440;13.540;2022-10-19T10:15:50;5.80;;;1.45;;
14738;SDS011;7461;52.440;13.540;2022-10-19T10:18:20;2.05;;;1.27;;
14738;SDS011;7461;52.440;13.540;2022-10-19T10:20:56;2.45;;;0.80;;
14738;SDS011;7461;52.440;13.540;2022-10-19T10:23:25;2.20;;;1.38;;
14738;SDS011;7461;52.440;13.540;2022-10-19T10:25:53;6.85;;;1.80;;
14738;SDS011;7461;52.440;13.540;2022-10-19T10:28:24;6.25;;;2.67;;
14738;SDS011;7461;52.440;13.540;2022-10-19T10:30:52;1.30;;;1.20;;
14738;SDS011;7461;52.440;13.540;2022-10-19T10:33:21;5.32;;;1.05;;
14738;SDS011;7461;52.440;13.540;2022-10-19T10:35:50;2.05;;;1.38;;
14738;SDS011;7461;52.440;13.540;2022-10-19T10:38:20;2.90;;;1.20;;
14738;SDS011;7461;52.440;13.540;2022-10-19T10:40:49;2.15;;;1.05;;
14738;SDS011;7461;52.440;13.540;2022-10-19T10:43:18;1.73;;;0.88;;
14738;SDS011;7461;52.440;13.540;2022-10-19T10:45:48;2.60;;;0.82;;
14738;SDS011;7461;52.440;13.540;2022-10-19T10:48:21;1.35;;;0.80;;
14738;SDS011;7461;52.440;13.540;2022-10-19T10:50:50;4.57;;;1.08;;
14738;SDS011;7461;52.440;13.540;2022-10-19T10:53:31;3.95;;;1.10;;
14738;SDS011;7461;52.440;13.540;2022-10-19T10:55:58;3.65;;;1.70;;
14738;SDS011;7461;52.440;13.540;2022-10-19T10:58:30;18.63;;;3.05;;
14738;SDS011;7461;52.440;13.540;2022-10-19T11:01:03;1.13;;;0.80;;
14738;SDS011;7461;52.440;13.540;2022-10-19T11:03:31;4.88;;;0.90;;
14738;SDS011;7461;52.440;13.540;2022-10-19T11:06:01;1.77;;;0.95;;
14738;SDS011;7461;52.440;13.540;2022-10-19T11:08:30;1.92;;;0.77;;
14738;SDS011;7461;52.440;13.540;2022-10-19T11:10:59;3.33;;;1.02;;
14738;SDS011;7461;52.440;13.540;2022-10-19T11:13:28;4.18;;;1.23;;
14738;SDS011;7461;52.440;13.540;2022-10-19T11:15:57;1.88;;;1.10;;
14738;SDS011;7461;52.440;13.540;2022-10-19T11:18:28;2.00;;;0.80;;
14738;SDS011;7461;52.440;13.540;2022-10-19T11:20:59;1.45;;;0.88;;
14738;SDS011;7461;52.440;13.540;2022-10-19T11:23:35;2.95;;;0.90;;
14738;SDS011;7461;52.440;13.540;2022-10-19T11:26:07;0.82;;;0.82;;
14738;SDS011;7461;52.440;13.540;2022-10-19T11:28:41;1.80;;;1.02;;
14738;SDS011;7461;52.440;13.540;2022-10-19T11:31:14;1.15;;;0.70;;
14738;SDS011;7461;52.440;13.540;2022-10-19T11:33:50;1.33;;;1.02;;
14738;SDS011;7461;52.440;13.540;2022-10-19T11:36:27;4.55;;;0.95;;
14738;SDS011;7461;52.440;13.540;2022-10-19T11:38:58;2.00;;;0.63;;
14738;SDS011;7461;52.440;13.540;2022-10-19T11:41:31;0.80;;;0.60;;
14738;SDS011;7461;52.440;13.540;2022-10-19T11:46:47;5.57;;;1.48;;
14738;SDS011;7461;52.440;13.540;2022-10-19T11:49:21;4.88;;;1.60;;
14738;SDS011;7461;52.440;13.540;2022-10-19T11:51:52;2.97;;;0.70;;
14738;SDS011;7461;52.440;13.540;2022-10-19T11:54:29;1.35;;;0.88;;
14738;SDS011;7461;52.440;13.540;2022-10-19T11:56:59;1.73;;;0.73;;
14738;SDS011;7461;52.440;13.540;2022-10-19T11:59:30;2.72;;;1.70;;
14738;SDS011;7461;52.440;13.540;2022-10-19T12:02:04;2.92;;;1.17;;
14738;SDS011;7461;52.440;13.540;2022-10-19T12:04:48;3.47;;;1.38;;
14738;SDS011;7461;52.440;13.540;2022-10-19T12:07:39;0.98;;;0.65;;
14738;SDS011;7461;52.440;13.540;2022-10-19T12:10:12;2.17;;;1.52;;
14738;SDS011;7461;52.440;13.540;2022-10-19T12:12:43;1.50;;;0.88;;
14738;SDS011;7461;52.440;13.540;2022-10-19T12:15:14;1.48;;;1.10;;
14738;SDS011;7461;52.440;13.540;2022-10-19T12:17:44;2.33;;;1.00;;
14738;SDS011;7461;52.440;13.540;2022-10-19T12:20:16;3.03;;;1.38;;
14738;SDS011;7461;52.440;13.540;2022-10-19T12:22:45;1.10;;;1.00;;
14738;SDS011;7461;52.440;13.540;2022-10-19T12:25:14;3.35;;;0.70;;
14738;SDS011;7461;52.440;13.540;2022-10-19T12:27:42;1.90;;;0.95;;
14738;SDS011;7461;52.440;13.540;2022-10-19T12:30:12;3.58;;;0.90;;
14738;SDS011;7461;52.440;13.540;2022-10-19T12:32:42;4.18;;;1.05;;
14738;SDS011;7461;52.440;13.540;2022-10-19T12:35:26;1.08;;;0.80;;
14738;SDS011;7461;52.440;13.540;2022-10-19T12:37:58;0.60;;;0.52;;
14738;SDS011;7461;52.440;13.540;2022-10-19T12:40:27;1.20;;;0.65;;
14738;SDS011;7461;52.440;13.540;2022-10-19T12:42:58;2.67;;;1.10;;
14738;SDS011;7461;52.440;13.540;2022-10-19T12:45:26;2.67;;;1.23;;
14738;SDS011;7461;52.440;13.540;2022-10-19T12:51:01;1.27;;;1.13;;
14738;SDS011;7461;52.440;13.540;2022-10-19T12:53:29;5.32;;;1.42;;
14738;SDS011;7461;52.440;13.540;2022-10-19T12:56:00;3.28;;;1.35;;
14738;SDS011;7461;52.440;13.540;2022-10-19T12:58:28;3.42;;;2.90;;
14738;SDS011;7461;52.440;13.540;2022-10-19T13:00:57;3.00;;;2.08;;
14738;SDS011;7461;52.440;13.540;2022-10-19T13:03:26;1.52;;;1.00;;
14738;SDS011;7461;52.440;13.540;2022-10-19T13:05:55;2.20;;;1.60;;
14738;SDS011;7461;52.440;13.540;2022-10-19T13:08:25;3.03;;;1.33;;
14738;SDS011;7461;52.440;13.540;2022-10-19T13:11:03;1.75;;;0.85;;
14738;SDS011;7461;52.440;13.540;2022-10-19T13:13:46;2.20;;;0.95;;
14738;SDS011;7461;52.440;13.540;2022-10-19T13:19:03;1.73;;;1.20;;
14738;SDS011;7461;52.440;13.540;2022-10-19T13:21:43;1.77;;;1.17;;
14738;SDS011;7461;52.440;13.540;2022-10-19T13:30:00;2.47;;;0.90;;
14738;SDS011;7461;52.440;13.540;2022-10-19T13:35:22;3.35;;;1.42;;
14738;SDS011;7461;52.440;13.540;2022-10-19T13:40:32;4.68;;;2.05;;
14738;SDS011;7461;52.440;13.540;2022-10-19T13:42:59;7.05;;;1.63;;
14738;SDS011;7461;52.440;13.540;2022-10-19T13:45:28;2.88;;;1.98;;
14738;SDS011;7461;52.440;13.540;2022-10-19T13:47:55;2.38;;;1.40;;
14738;SDS011;7461;52.440;13.540;2022-10-19T13:50:33;2.28;;;1.55;;
14738;SDS011;7461;52.440;13.540;2022-10-19T13:56:00;2.13;;;1.13;;
14738;SDS011;7461;52.440;13.540;2022-10-19T14:01:27;2.80;;;1.20;;
14738;SDS011;7461;52.440;13.540;2022-10-19T14:04:06;6.82;;;1.30;;
14738;SDS011;7461;52.440;13.540;2022-10-19T14:06:39;4.03;;;1.35;;
14738;SDS011;7461;52.440;13.540;2022-10-19T14:12:01;1.85;;;1.10;;
14738;SDS011;7461;52.440;13.540;2022-10-19T14:14:37;7.10;;;1.98;;
14738;SDS011;7461;52.440;13.540;2022-10-19T14:17:13;1.27;;;1.15;;
14738;SDS011;7461;52.440;13.540;2022-10-19T14:19:42;3.28;;;1.40;;
14738;SDS011;7461;52.440;13.540;2022-10-19T14:22:17;2.67;;;0.95;;
14738;SDS011;7461;52.440;13.540;2022-10-19T14:24:44;1.45;;;0.77;;
14738;SDS011;7461;52.440;13.540;2022-10-19T14:27:14;1.63;;;1.00;;
14738;SDS011;7461;52.440;13.540;2022-10-19T14:29:43;2.28;;;1.35;;
14738;SDS011;7461;52.440;13.540;2022-10-19T14:32:14;3.20;;;1.73;;
14738;SDS011;7461;52.440;13.540;2022-10-19T14:34:43;3.05;;;1.17;;
14738;SDS011;7461;52.440;13.540;2022-10-19T14:37:12;3.53;;;0.90;;
14738;SDS011;7461;52.440;13.540;2022-10-19T14:39:40;1.10;;;0.77;;
14738;SDS011;7461;52.440;13.540;2022-10-19T14:42:08;1.48;;;1.17;;
14738;SDS011;7461;52.440;13.540;2022-10-19T14:44:37;2.00;;;0.75;;
14738;SDS011;7461;52.440;13.540;2022-10-19T14:47:17;0.73;;;0.60;;
14738;SDS011;7461;52.440;13.540;2022-10-19T14:49:44;0.68;;;0.50;;
14738;SDS011;7461;52.440;13.540;2022-10-19T14:52:12;1.42;;;1.30;;
14738;SDS011;7461;52.440;13.540;2022-10-19T14:54:41;5.28;;;1.02;;
14738;SDS011;7461;52.440;13.540;2022-10-19T14:57:11;1.55;;;0.95;;
14738;SDS011;7461;52.440;13.540;2022-10-19T14:59:42;2.58;;;0.90;;
14738;SDS011;7461;52.440;13.540;2022-10-19T15:02:11;2.83;;;0.85;;
14738;SDS011;7461;52.440;13.540;2022-10-19T15:04:44;3.97;;;2.25;;
14738;SDS011;7461;52.440;13.540;2022-10-19T15:07:15;1.17;;;0.90;;
14738;SDS011;7461;52.440;13.540;2022-10-19T15:09:46;1.08;;;1.05;;
14738;SDS011;7461;52.440;13.540;2022-10-19T15:12:15;3.47;;;1.40;;
14738;SDS011;7461;52.440;13.540;2022-10-19T15:14:43;1.58;;;1.33;;
14738;SDS011;7461;52.440;13.540;2022-10-19T15:17:19;2.67;;;1.20;;
14738;SDS011;7461;52.440;13.540;2022-10-19T15:19:48;1.50;;;1.02;;
14738;SDS011;7461;52.440;13.540;2022-10-19T15:22:16;6.20;;;2.15;;
14738;SDS011;7461;52.440;13.540;2022-10-19T15:24:57;1.15;;;0.75;;
14738;SDS011;7461;52.440;13.540;2022-10-19T15:27:28;1.42;;;1.20;;